Time;durP1;ratioP1;P1;durP2;ratioP2;P2;SDS_P1;SDS_P2;PMS_P1;PMS_P2;Temp;Humidity;BMP_temperature;BMP_pressure;BME280_temperature;BME280_humidity;BME280_pressure;Samples;Min_cycle;Max_cycle;Signal;HPM_P1;HPM_P2
2022/06/10 00:01:16;;;;;;;;;;;;;;;21.17;100.00;99429.06;5044657;28;19921;-50
2022/06/10 00:03:41;;;;;;;;;;;;;;;21.13;100.00;99423.16;5022221;28;19967;-49
2022/06/10 00:06:07;;;;;;;;;;;;;;;21.12;100.00;99423.28;5026115;28;19920;-51
2022/06/10 00:08:44;;;;;;;;;;;;;;;21.19;100.00;99430.63;5045058;28;19927;-51
2022/06/10 00:11:10;;;;;;;;;;;;;;;21.17;100.00;99423.81;5043391;28;20027;-50
2022/06/10 00:13:37;;;;;;;;;;;;;;;21.06;100.00;99425.38;5011940;28;20046;-52
2022/06/10 00:16:03;;;;;;;;;;;;;;;21.03;100.00;99427.38;5024156;28;19921;-52
2022/06/10 00:18:29;;;;;;;;;;;;;;;20.99;100.00;99429.34;5045476;28;19952;-51
2022/06/10 00:20:55;;;;;;;;;;;;;;;21.04;100.00;99431.66;5043509;28;20321;-52
2022/06/10 00:23:20;;;;;;;;;;;;;;;20.95;100.00;99432.28;5029411;28;19929;-52
2022/06/10 00:25:46;;;;;;;;;;;;;;;20.89;100.00;99431.78;5027312;28;20047;-50
2022/06/10 00:28:11;;;;;;;;;;;;;;;20.89;100.00;99433.53;5008449;28;19925;-50
2022/06/10 00:30:36;;;;;;;;;;;;;;;20.83;100.00;99432.19;5028926;28;20713;-52
2022/06/10 00:33:02;;;;;;;;;;;;;;;20.84;100.00;99436.47;5027704;28;19948;-48
2022/06/10 00:35:28;;;;;;;;;;;;;;;20.88;100.00;99432.69;5010169;28;19928;-50
2022/06/10 00:37:53;;;;;;;;;;;;;;;20.70;100.00;99433.09;5028380;28;20304;-51
2022/06/10 00:40:23;;;;;;;;;;;;;;;20.79;100.00;99430.69;5045329;28;19917;-48
2022/06/10 00:42:49;;;;;;;;;;;;;;;20.58;100.00;99434.78;5046509;28;19932;-51
2022/06/10 00:45:33;;;;;;;;;;;;;;;20.50;100.00;99432.59;5047154;28;19917;-49
2022/06/10 00:47:58;;;;;;;;;;;;;;;20.66;100.00;99437.69;5046154;28;19931;-49
2022/06/10 00:50:28;;;;;;;;;;;;;;;20.63;100.00;99432.69;5025535;28;19917;-48
2022/06/10 00:52:58;;;;;;;;;;;;;;;20.64;100.00;99431.72;5027633;28;20315;-50
2022/06/10 00:55:28;;;;;;;;;;;;;;;20.73;100.00;99432.88;5025255;28;19920;-52
2022/06/10 00:57:53;;;;;;;;;;;;;;;20.49;100.00;99436.19;5042576;28;19927;-51
2022/06/10 01:00:18;;;;;;;;;;;;;;;20.58;100.00;99440.00;5045719;28;19921;-50
2022/06/10 01:02:44;;;;;;;;;;;;;;;20.46;100.00;99442.47;5045236;28;19924;-52
2022/06/10 01:05:11;;;;;;;;;;;;;;;20.42;100.00;99438.34;5043294;28;20003;-50
2022/06/10 01:07:41;;;;;;;;;;;;;;;20.62;100.00;99441.47;5024107;28;19921;-52
2022/06/10 01:10:07;;;;;;;;;;;;;;;20.46;100.00;99437.22;5011095;28;20286;-51
2022/06/10 01:12:41;;;;;;;;;;;;;;;20.34;100.00;99443.25;5025641;28;19921;-52
2022/06/10 01:15:25;;;;;;;;;;;;;;;20.34;100.00;99445.84;5041898;28;19928;-50
2022/06/10 01:18:03;;;;;;;;;;;;;;;20.33;100.00;99446.81;5022854;28;19924;-47
2022/06/10 01:20:37;;;;;;;;;;;;;;;20.35;100.00;99442.31;5045184;28;19948;-50
2022/06/10 01:23:22;;;;;;;;;;;;;;;20.46;100.00;99447.69;5041771;28;19925;-48
2022/06/10 01:25:56;;;;;;;;;;;;;;;20.21;100.00;99447.63;5043991;28;19960;-48
2022/06/10 01:28:24;;;;;;;;;;;;;;;20.50;100.00;99447.47;5044218;28;19920;-46
2022/06/10 01:30:51;;;;;;;;;;;;;;;20.37;100.00;99447.47;5044038;28;19917;-48
2022/06/10 01:33:21;;;;;;;;;;;;;;;19.96;100.00;99446.56;5042205;28;19920;-49
2022/06/10 01:35:59;;;;;;;;;;;;;;;19.53;100.00;99444.00;5024864;28;19955;-48
2022/06/10 01:38:24;;;;;;;;;;;;;;;19.98;100.00;99447.31;5026454;28;19920;-50
2022/06/10 01:40:53;;;;;;;;;;;;;;;20.01;100.00;99444.50;5022398;28;19935;-50
2022/06/10 01:43:18;;;;;;;;;;;;;;;19.85;100.00;99447.25;5025795;28;19971;-52
2022/06/10 01:45:46;;;;;;;;;;;;;;;19.97;100.00;99440.41;5045314;28;19966;-51
2022/06/10 01:48:13;;;;;;;;;;;;;;;20.10;100.00;99440.47;5042588;28;19924;-50
2022/06/10 01:50:42;;;;;;;;;;;;;;;19.86;100.00;99432.41;5026039;28;20012;-49
2022/06/10 01:53:08;;;;;;;;;;;;;;;19.61;100.00;99433.94;5044162;28;19917;-51
2022/06/10 01:55:34;;;;;;;;;;;;;;;19.55;100.00;99431.69;5024344;28;19952;-51
2022/06/10 01:58:07;;;;;;;;;;;;;;;19.22;100.00;99435.41;5045270;28;20046;-48
2022/06/10 02:00:33;;;;;;;;;;;;;;;20.02;100.00;99427.84;5026512;28;19920;-49
2022/06/10 02:03:09;;;;;;;;;;;;;;;19.83;100.00;99430.81;5028584;28;19924;-46
2022/06/10 02:05:39;;;;;;;;;;;;;;;19.86;100.00;99432.41;5024752;28;19925;-48
2022/06/10 02:08:15;;;;;;;;;;;;;;;19.39;100.00;99438.81;5025152;28;19920;-47
2022/06/10 02:10:52;;;;;;;;;;;;;;;19.54;100.00;99435.22;5039704;28;19928;-50
2022/06/10 02:13:18;;;;;;;;;;;;;;;19.18;100.00;99436.56;5023413;28;19921;-48
2022/06/10 02:15:47;;;;;;;;;;;;;;;19.52;100.00;99433.63;5022428;28;20366;-49
2022/06/10 02:18:14;;;;;;;;;;;;;;;18.80;100.00;99439.69;5043288;28;20019;-51
2022/06/10 02:20:44;;;;;;;;;;;;;;;18.78;100.00;99444.16;5041430;28;20016;-50
2022/06/10 02:23:09;;;;;;;;;;;;;;;18.75;100.00;99446.91;5042554;28;19924;-47
2022/06/10 02:25:36;;;;;;;;;;;;;;;18.83;100.00;99445.66;5042181;28;20001;-52
2022/06/10 02:28:04;;;;;;;;;;;;;;;18.93;100.00;99442.41;5025713;28;19924;-50
2022/06/10 02:30:30;;;;;;;;;;;;;;;18.64;100.00;99451.91;5042917;28;19966;-50
2022/06/10 02:32:56;;;;;;;;;;;;;;;18.79;100.00;99450.19;5024270;28;19964;-47
2022/06/10 02:35:21;;;;;;;;;;;;;;;18.89;100.00;99446.13;5025174;28;20019;-47
2022/06/10 02:37:52;;;;;;;;;;;;;;;18.61;100.00;99446.91;5040179;28;19956;-49
2022/06/10 02:40:27;;;;;;;;;;;;;;;18.97;100.00;99449.09;5039184;28;19966;-47
2022/06/10 02:42:52;;;;;;;;;;;;;;;19.02;100.00;99452.31;5041867;28;19925;-48
2022/06/10 02:45:23;;;;;;;;;;;;;;;18.63;100.00;99450.22;5041465;28;19971;-47
2022/06/10 02:47:49;;;;;;;;;;;;;;;18.13;100.00;99451.34;5041987;28;19924;-47
2022/06/10 02:50:14;;;;;;;;;;;;;;;18.93;100.00;99450.25;5041322;28;20386;-48
2022/06/10 02:52:40;;;;;;;;;;;;;;;18.57;100.00;99450.59;5042972;28;20318;-47
2022/06/10 02:55:06;;;;;;;;;;;;;;;17.95;100.00;99458.44;5007003;28;20478;-48
2022/06/10 03:03:03;;;;;;;;;;;;;;;17.78;100.00;99462.75;5026053;28;20023;-46
2022/06/10 03:05:33;;;;;;;;;;;;;;;18.37;100.00;99460.38;5045463;28;19924;-47
2022/06/10 03:08:29;;;;;;;;;;;;;;;18.00;100.00;99471.22;5021983;28;19923;-47
2022/06/10 03:11:12;;;;;;;;;;;;;;;18.52;100.00;99457.81;5025472;28;20200;-45
2022/06/10 03:13:43;;;;;;;;;;;;;;;18.42;100.00;99467.13;5041207;28;19920;-47
2022/06/10 03:16:28;;;;;;;;;;;;;;;17.93;100.00;99461.13;5022166;28;19926;-46
2022/06/10 03:19:13;;;;;;;;;;;;;;;17.53;100.00;99457.19;5038699;28;20356;-47
2022/06/10 03:21:44;;;;;;;;;;;;;;;17.83;100.00;99465.13;5022598;28;19975;-47
2022/06/10 03:24:14;;;;;;;;;;;;;;;17.78;100.00;99461.91;5024419;28;19925;-46
2022/06/10 03:26:42;;;;;;;;;;;;;;;18.21;100.00;99464.78;5022519;28;19921;-49
2022/06/10 03:29:14;;;;;;;;;;;;;;;18.38;100.00;99459.47;5025396;28;19928;-48
2022/06/10 03:31:40;;;;;;;;;;;;;;;18.34;100.00;99457.13;5048263;28;19920;-49
2022/06/10 03:34:18;;;;;;;;;;;;;;;18.45;100.00;99461.72;5027020;28;20286;-47
2022/06/10 03:36:44;;;;;;;;;;;;;;;17.53;100.00;99467.59;5027506;28;19920;-46
2022/06/10 03:39:10;;;;;;;;;;;;;;;17.90;100.00;99469.13;5025208;28;19920;-50
2022/06/10 03:41:35;;;;;;;;;;;;;;;17.96;100.00;99470.53;5045833;28;19927;-48
2022/06/10 03:44:02;;;;;;;;;;;;;;;17.66;100.00;99473.00;5044365;28;19921;-48
2022/06/10 03:46:32;;;;;;;;;;;;;;;18.42;100.00;99472.34;5046279;28;20724;-47
2022/06/10 03:48:58;;;;;;;;;;;;;;;18.10;100.00;99481.03;5044322;28;19920;-47
2022/06/10 03:51:24;;;;;;;;;;;;;;;17.67;100.00;99479.88;5044755;28;19920;-49
2022/06/10 03:53:49;;;;;;;;;;;;;;;17.72;100.00;99478.72;5045370;28;19917;-46
2022/06/10 03:56:19;;;;;;;;;;;;;;;18.47;100.00;99481.56;5044723;28;19920;-48
2022/06/10 03:58:45;;;;;;;;;;;;;;;18.50;100.00;99485.78;5026395;28;19927;-47
2022/06/10 04:01:10;;;;;;;;;;;;;;;18.21;100.00;99484.81;5042714;28;20950;-46
2022/06/10 04:03:35;;;;;;;;;;;;;;;18.81;100.00;99495.31;5027123;28;19920;-49
2022/06/10 04:06:01;;;;;;;;;;;;;;;18.90;100.00;99484.34;5046907;28;20610;-49
2022/06/10 04:08:26;;;;;;;;;;;;;;;18.61;100.00;99499.06;5046875;28;19916;-48
2022/06/10 04:10:51;;;;;;;;;;;;;;;18.97;100.00;99497.88;5043183;28;20553;-51
2022/06/10 04:13:20;;;;;;;;;;;;;;;18.01;100.00;99502.38;5044522;28;19995;-51
2022/06/10 04:15:45;;;;;;;;;;;;;;;18.62;100.00;99505.13;5043782;28;20884;-47
2022/06/10 04:18:10;;;;;;;;;;;;;;;18.48;100.00;99503.28;5027781;28;19916;-48
2022/06/10 04:20:37;;;;;;;;;;;;;;;19.19;100.00;99500.91;5043372;28;19920;-48
2022/06/10 04:23:02;;;;;;;;;;;;;;;18.91;100.00;99501.69;5045582;28;19932;-51
2022/06/10 04:25:28;;;;;;;;;;;;;;;18.97;100.00;99506.53;5044315;28;19921;-49
2022/06/10 04:27:53;;;;;;;;;;;;;;;18.57;100.00;99513.19;5046546;28;20358;-49
2022/06/10 04:30:21;;;;;;;;;;;;;;;17.76;100.00;99505.44;5043950;28;19924;-48
2022/06/10 04:32:46;;;;;;;;;;;;;;;18.51;100.00;99503.94;5025670;28;19923;-48
2022/06/10 04:35:11;;;;;;;;;;;;;;;18.11;100.00;99505.31;5046101;28;19924;-47
2022/06/10 04:37:36;;;;;;;;;;;;;;;17.98;100.00;99500.78;5045802;28;19916;-48
2022/06/10 04:40:02;;;;;;;;;;;;;;;17.93;100.00;99502.81;5043470;28;19979;-51
2022/06/10 04:42:27;;;;;;;;;;;;;;;18.58;100.00;99504.44;5027839;28;19925;-47
2022/06/10 04:44:53;;;;;;;;;;;;;;;19.17;100.00;99502.75;5044822;28;20711;-51
2022/06/10 04:47:18;;;;;;;;;;;;;;;18.76;100.00;99498.16;5048348;28;20499;-47
2022/06/10 04:49:43;;;;;;;;;;;;;;;18.63;100.00;99507.63;5042189;28;19928;-47
2022/06/10 04:52:08;;;;;;;;;;;;;;;19.75;100.00;99503.66;5037491;28;19920;-48
2022/06/10 04:54:33;;;;;;;;;;;;;;;20.40;100.00;99510.88;5034857;28;19977;-50
2022/06/10 04:56:59;;;;;;;;;;;;;;;20.95;100.00;99509.06;5039250;28;20099;-50
2022/06/10 04:59:24;;;;;;;;;;;;;;;21.26;100.00;99510.44;5043104;28;19920;-49
2022/06/10 05:01:49;;;;;;;;;;;;;;;21.69;100.00;99515.38;5041366;28;19924;-47
2022/06/10 05:04:14;;;;;;;;;;;;;;;21.17;100.00;99518.94;5043440;28;19921;-47
2022/06/10 05:06:40;;;;;;;;;;;;;;;21.55;100.00;99512.03;5044527;28;19928;-47
2022/06/10 05:09:05;;;;;;;;;;;;;;;21.59;100.00;99514.34;5044410;28;20349;-48
2022/06/10 05:11:30;;;;;;;;;;;;;;;21.49;100.00;99514.16;5043914;28;19994;-48
2022/06/10 05:13:56;;;;;;;;;;;;;;;21.28;100.00;99513.81;5044831;28;19989;-49
2022/06/10 05:16:22;;;;;;;;;;;;;;;21.33;100.00;99520.53;5045223;28;19926;-47
2022/06/10 05:18:47;;;;;;;;;;;;;;;21.39;100.00;99509.59;5045523;28;19917;-48
2022/06/10 05:21:12;;;;;;;;;;;;;;;21.46;100.00;99516.13;5044537;28;19923;-47
2022/06/10 05:23:38;;;;;;;;;;;;;;;21.80;100.00;99519.03;5044945;28;19924;-47
2022/06/10 05:26:03;;;;;;;;;;;;;;;22.05;100.00;99508.47;5045750;28;19925;-48
2022/06/10 05:28:28;;;;;;;;;;;;;;;22.46;100.00;99520.41;5027021;28;20243;-48
2022/06/10 05:30:53;;;;;;;;;;;;;;;22.70;100.00;99519.56;5026086;28;20593;-47
2022/06/10 05:33:19;;;;;;;;;;;;;;;21.88;100.00;99516.72;5045696;28;20278;-48
2022/06/10 05:35:44;;;;;;;;;;;;;;;21.97;100.00;99518.69;5010523;28;19996;-48
2022/06/10 05:38:10;;;;;;;;;;;;;;;22.44;100.00;99518.84;5025605;28;19974;-47
2022/06/10 05:40:35;;;;;;;;;;;;;;;22.84;100.00;99516.75;5044156;28;19967;-48
2022/06/10 05:43:01;;;;;;;;;;;;;;;22.04;100.00;99519.91;5044832;28;20291;-47
2022/06/10 05:45:26;;;;;;;;;;;;;;;22.30;100.00;99522.47;5040681;28;19920;-48
2022/06/10 05:47:53;;;;;;;;;;;;;;;22.24;100.00;99529.03;5042390;28;19924;-47
2022/06/10 05:50:24;;;;;;;;;;;;;;;21.76;100.00;99523.66;5041859;28;20104;-50
2022/06/10 05:52:50;;;;;;;;;;;;;;;22.17;100.00;99522.50;5025267;28;20445;-48
2022/06/10 05:55:15;;;;;;;;;;;;;;;22.32;100.00;99531.09;5041143;28;19924;-48
2022/06/10 05:57:40;;;;;;;;;;;;;;;22.55;100.00;99526.78;5041889;28;19916;-50
2022/06/10 06:00:13;;;;;;;;;;;;;;;23.14;100.00;99529.41;5043609;28;19932;-47
2022/06/10 06:02:38;;;;;;;;;;;;;;;22.29;100.00;99539.19;5024702;28;19971;-50
2022/06/10 06:05:03;;;;;;;;;;;;;;;22.80;100.00;99538.94;5040609;28;20024;-46
2022/06/10 06:07:29;;;;;;;;;;;;;;;22.97;100.00;99538.53;5044297;28;20035;-47
2022/06/10 06:09:54;;;;;;;;;;;;;;;23.49;100.00;99533.78;5023997;28;19986;-48
2022/06/10 06:12:20;;;;;;;;;;;;;;;23.21;100.00;99540.28;5034124;28;20019;-52
2022/06/10 06:14:45;;;;;;;;;;;;;;;23.12;100.00;99540.97;5039495;28;20007;-48
2022/06/10 06:17:11;;;;;;;;;;;;;;;23.14;100.00;99542.53;5040270;28;20405;-47
2022/06/10 06:19:36;;;;;;;;;;;;;;;23.08;100.00;99550.03;5022924;28;19920;-48
2022/06/10 06:22:01;;;;;;;;;;;;;;;23.80;100.00;99542.75;5043125;28;20003;-46
2022/06/10 06:24:27;;;;;;;;;;;;;;;24.33;100.00;99543.88;5042953;28;20025;-48
2022/06/10 06:26:52;;;;;;;;;;;;;;;24.26;100.00;99540.91;5042255;28;20658;-50
2022/06/10 06:29:18;;;;;;;;;;;;;;;24.27;100.00;99536.47;5041041;28;19925;-50
2022/06/10 06:31:43;;;;;;;;;;;;;;;24.71;100.00;99547.84;5041101;28;20590;-48
2022/06/10 06:34:08;;;;;;;;;;;;;;;24.42;100.00;99543.13;5043189;28;19916;-49
2022/06/10 06:36:38;;;;;;;;;;;;;;;24.39;100.00;99540.75;5045377;28;19920;-48
2022/06/10 06:39:04;;;;;;;;;;;;;;;25.33;99.64;99539.16;5025223;28;20374;-47
2022/06/10 06:41:29;;;;;;;;;;;;;;;24.58;95.39;99543.56;5023834;28;19927;-50
2022/06/10 06:43:55;;;;;;;;;;;;;;;24.29;100.00;99550.34;5043583;28;19925;-49
2022/06/10 06:46:20;;;;;;;;;;;;;;;23.86;100.00;99551.13;5040620;28;19920;-47
2022/06/10 06:48:45;;;;;;;;;;;;;;;24.08;100.00;99550.25;5041954;28;20810;-47
2022/06/10 06:51:11;;;;;;;;;;;;;;;24.66;99.51;99548.25;5039989;28;20566;-48
2022/06/10 06:53:36;;;;;;;;;;;;;;;24.20;96.05;99550.13;5042318;28;19912;-49
2022/06/10 06:56:02;;;;;;;;;;;;;;;24.62;99.01;99550.28;5041743;28;19959;-49
2022/06/10 06:58:27;;;;;;;;;;;;;;;25.61;96.09;99547.34;5041195;28;19940;-48
2022/06/10 07:00:53;;;;;;;;;;;;;;;24.84;93.80;99545.88;5025174;28;19920;-50
2022/06/10 07:03:18;;;;;;;;;;;;;;;25.10;99.26;99545.50;5027101;28;19924;-47
2022/06/10 07:05:43;;;;;;;;;;;;;;;24.66;97.01;99547.41;5043646;28;19920;-50
2022/06/10 07:08:09;;;;;;;;;;;;;;;24.96;97.72;99547.50;5047603;28;20574;-49
2022/06/10 07:10:34;;;;;;;;;;;;;;;25.46;98.56;99555.59;5047165;28;19947;-49
2022/06/10 07:12:59;;;;;;;;;;;;;;;25.28;98.19;99557.16;5045829;28;19920;-50
2022/06/10 07:15:25;;;;;;;;;;;;;;;24.71;97.61;99555.75;5048504;28;20455;-48
2022/06/10 07:17:50;;;;;;;;;;;;;;;24.92;94.88;99548.72;5043950;28;19924;-48
2022/06/10 07:20:18;;;;;;;;;;;;;;;25.76;91.84;99545.19;5046568;28;20804;-49
2022/06/10 07:22:43;;;;;;;;;;;;;;;25.32;89.82;99548.03;5042053;28;20106;-50
2022/06/10 07:25:09;;;;;;;;;;;;;;;26.17;89.55;99541.59;5029326;28;19920;-49
2022/06/10 07:27:36;;;;;;;;;;;;;;;25.85;88.54;99545.22;5046179;28;19924;-49
2022/06/10 07:30:03;;;;;;;;;;;;;;;26.16;90.71;99542.59;5044997;28;20461;-49
2022/06/10 07:32:29;;;;;;;;;;;;;;;25.96;86.56;99546.13;5045329;28;19924;-49
2022/06/10 07:34:54;;;;;;;;;;;;;;;26.12;88.42;99557.00;5044830;28;19944;-48
2022/06/10 07:37:19;;;;;;;;;;;;;;;26.02;87.44;99546.44;5044560;28;19921;-48
2022/06/10 07:39:44;;;;;;;;;;;;;;;25.85;90.66;99555.78;5025484;28;19924;-48
2022/06/10 07:42:10;;;;;;;;;;;;;;;26.89;85.69;99547.50;5045996;28;19943;-47
2022/06/10 07:44:36;;;;;;;;;;;;;;;26.15;87.54;99551.47;5045592;28;20468;-50
2022/06/10 07:47:02;;;;;;;;;;;;;;;27.41;86.01;99539.25;5045861;28;19927;-52
2022/06/10 07:49:28;;;;;;;;;;;;;;;26.66;86.39;99544.31;5045586;28;19964;-50
2022/06/10 07:51:53;;;;;;;;;;;;;;;26.29;87.78;99548.41;5026386;28;20498;-51
2022/06/10 07:54:18;;;;;;;;;;;;;;;25.87;89.51;99551.25;5047489;28;19959;-52
2022/06/10 07:56:43;;;;;;;;;;;;;;;25.76;88.59;99551.31;5046578;28;19917;-50
2022/06/10 07:59:09;;;;;;;;;;;;;;;24.95;90.99;99555.50;5044044;28;19932;-47
2022/06/10 08:01:34;;;;;;;;;;;;;;;26.57;83.94;99546.00;5037873;28;19943;-49
2022/06/10 08:04:00;;;;;;;;;;;;;;;27.61;83.10;99540.00;5028205;28;19931;-48
2022/06/10 08:06:26;;;;;;;;;;;;;;;27.44;82.81;99550.38;5048103;28;19921;-48
2022/06/10 08:08:52;;;;;;;;;;;;;;;26.42;85.01;99552.63;5046225;28;20250;-50
2022/06/10 08:11:17;;;;;;;;;;;;;;;28.06;80.00;99544.56;5026594;28;19920;-49
2022/06/10 08:13:43;;;;;;;;;;;;;;;28.93;76.26;99548.41;5043921;28;20043;-52
2022/06/10 08:16:08;;;;;;;;;;;;;;;28.60;74.46;99548.13;5047380;28;19921;-49
2022/06/10 08:18:34;;;;;;;;;;;;;;;28.55;68.88;99550.41;5046567;28;19921;-52
2022/06/10 08:23:44;;;;;;;;;;;;;;;28.22;75.87;99549.22;5044722;28;19932;-49
2022/06/10 08:26:09;;;;;;;;;;;;;;;27.44;68.59;99547.72;5045306;28;19917;-49
2022/06/10 08:28:35;;;;;;;;;;;;;;;27.74;71.95;99549.28;5042929;28;19924;-48
2022/06/10 08:31:01;;;;;;;;;;;;;;;27.92;70.18;99548.56;5028161;28;19927;-51
2022/06/10 08:33:26;;;;;;;;;;;;;;;29.46;61.84;99555.44;5045899;28;20412;-52
2022/06/10 08:35:51;;;;;;;;;;;;;;;27.85;71.46;99563.31;5045710;28;19925;-51
2022/06/10 08:38:16;;;;;;;;;;;;;;;27.87;64.58;99545.50;5048485;28;19962;-50
2022/06/10 08:40:58;;;;;;;;;;;;;;;28.46;64.75;99546.81;5045524;28;20001;-52
2022/06/10 08:43:39;;;;;;;;;;;;;;;28.48;67.80;99549.34;5045986;28;19925;-51
2022/06/10 08:46:13;;;;;;;;;;;;;;;25.65;80.99;99562.78;5044976;28;19970;-49
2022/06/10 08:48:50;;;;;;;;;;;;;;;26.00;83.34;99558.06;5046000;28;20048;-51
2022/06/10 08:51:22;;;;;;;;;;;;;;;26.63;84.89;99561.28;5025077;28;20015;-49
2022/06/10 08:53:51;;;;;;;;;;;;;;;25.52;85.02;99561.31;5043700;28;20395;-50
2022/06/10 08:56:28;;;;;;;;;;;;;;;25.56;89.72;99565.38;5028834;28;19920;-51
2022/06/10 08:58:55;;;;;;;;;;;;;;;24.27;90.44;99570.69;5042880;28;19924;-49
2022/06/10 09:01:21;;;;;;;;;;;;;;;24.16;94.45;99572.38;5024648;28;19939;-50
2022/06/10 09:04:03;;;;;;;;;;;;;;;24.67;93.46;99562.25;5045190;28;19929;-50
2022/06/10 09:06:30;;;;;;;;;;;;;;;24.65;93.64;99564.16;5038308;28;19920;-51
2022/06/10 09:08:56;;;;;;;;;;;;;;;25.54;93.84;99567.31;5026910;28;19920;-50
2022/06/10 09:11:26;;;;;;;;;;;;;;;25.37;90.75;99569.56;5045922;28;19920;-52
2022/06/10 09:13:51;;;;;;;;;;;;;;;26.22;84.44;99568.41;5045038;28;19921;-48
2022/06/10 09:16:35;;;;;;;;;;;;;;;26.18;86.50;99572.28;5043252;28;20562;-52
2022/06/10 09:19:19;;;;;;;;;;;;;;;27.20;81.77;99568.50;5043871;28;19963;-53
2022/06/10 09:21:57;;;;;;;;;;;;;;;27.49;71.77;99555.25;5046043;28;19917;-53
2022/06/10 09:24:31;;;;;;;;;;;;;;;28.34;76.38;99558.63;5040841;28;19929;-53
2022/06/10 09:27:09;;;;;;;;;;;;;;;28.61;74.45;99554.28;5027155;28;19923;-50
2022/06/10 09:29:38;;;;;;;;;;;;;;;27.39;76.11;99568.47;5025400;28;19972;-52
2022/06/10 09:32:07;;;;;;;;;;;;;;;27.52;74.80;99563.69;5026895;28;19971;-52
2022/06/10 09:34:36;;;;;;;;;;;;;;;28.00;71.09;99568.97;5044489;28;19932;-52
2022/06/10 09:37:10;;;;;;;;;;;;;;;27.74;75.98;99566.97;5026612;28;19927;-51
2022/06/10 09:42:30;;;;;;;;;;;;;;;26.14;86.73;99576.19;5042584;28;20400;-53
2022/06/10 09:45:14;;;;;;;;;;;;;;;27.49;82.44;99564.00;5041676;28;20428;-53
2022/06/10 09:47:47;;;;;;;;;;;;;;;26.69;86.11;99571.31;5043568;28;20103;-52
2022/06/10 09:50:31;;;;;;;;;;;;;;;26.72;91.56;99564.09;5025345;28;19920;-50
2022/06/10 09:53:17;;;;;;;;;;;;;;;27.69;82.13;99561.31;5043155;28;19946;-53
2022/06/10 09:55:57;;;;;;;;;;;;;;;28.84;78.04;99559.94;5024924;28;19924;-53
2022/06/10 09:58:32;;;;;;;;;;;;;;;28.04;74.17;99568.53;5044929;28;20305;-53
2022/06/10 10:00:58;;;;;;;;;;;;;;;28.19;71.92;99568.03;5044100;28;19916;-49
2022/06/10 10:03:40;;;;;;;;;;;;;;;27.90;79.90;99567.22;5040443;28;20231;-50
2022/06/10 10:06:11;;;;;;;;;;;;;;;27.86;77.12;99571.13;5028554;28;19920;-51
2022/06/10 10:08:39;;;;;;;;;;;;;;;27.48;80.98;99567.63;5038624;28;19956;-51
2022/06/10 10:11:09;;;;;;;;;;;;;;;28.62;73.81;99562.06;5042665;28;19920;-53
2022/06/10 10:13:53;;;;;;;;;;;;;;;28.74;68.15;99558.22;5024326;28;19963;-51
2022/06/10 10:16:20;;;;;;;;;;;;;;;28.27;78.20;99566.31;5042652;28;19966;-52
2022/06/10 10:19:04;;;;;;;;;;;;;;;28.21;77.95;99569.56;5027058;28;19920;-50
2022/06/10 10:21:33;;;;;;;;;;;;;;;27.91;76.46;99563.56;5041823;28;19920;-52
2022/06/10 10:23:59;;;;;;;;;;;;;;;28.77;74.08;99563.19;5044964;28;20268;-49
2022/06/10 10:26:25;;;;;;;;;;;;;;;28.72;72.58;99557.53;5044681;28;19931;-50
2022/06/10 10:28:53;;;;;;;;;;;;;;;28.39;77.45;99563.47;5044538;28;20951;-53
2022/06/10 10:31:23;;;;;;;;;;;;;;;28.93;72.71;99559.03;5042859;28;20952;-53
2022/06/10 10:33:48;;;;;;;;;;;;;;;28.40;76.08;99563.31;5042751;28;19928;-53
2022/06/10 10:36:20;;;;;;;;;;;;;;;28.17;71.56;99568.22;5045297;28;19921;-51
2022/06/10 10:38:46;;;;;;;;;;;;;;;28.95;72.97;99567.66;5043154;28;20601;-50
2022/06/10 10:41:12;;;;;;;;;;;;;;;28.78;67.09;99564.88;5044592;28;19921;-51
2022/06/10 10:43:37;;;;;;;;;;;;;;;29.18;67.60;99562.72;5041966;28;19971;-53
2022/06/10 10:46:25;;;;;;;;;;;;;;;30.18;70.10;99560.44;5041050;28;20031;-53
2022/06/10 10:48:50;;;;;;;;;;;;;;;29.31;71.06;99557.84;5042226;28;19921;-50
2022/06/10 10:51:20;;;;;;;;;;;;;;;31.44;67.44;99558.38;5026117;28;19920;-49
2022/06/10 10:53:48;;;;;;;;;;;;;;;30.24;66.93;99559.75;5039357;28;19921;-51
2022/06/10 10:56:13;;;;;;;;;;;;;;;31.06;61.31;99557.25;5045079;28;20471;-52
2022/06/10 10:58:41;;;;;;;;;;;;;;;29.29;64.19;99556.34;5022518;28;19996;-50
2022/06/10 11:01:08;;;;;;;;;;;;;;;30.58;63.23;99551.72;5041354;28;19952;-52
2022/06/10 11:03:44;;;;;;;;;;;;;;;29.81;67.02;99553.66;5024683;28;19951;-51
2022/06/10 11:06:19;;;;;;;;;;;;;;;29.77;68.98;99557.63;5021608;28;20407;-52
2022/06/10 11:08:45;;;;;;;;;;;;;;;30.00;68.36;99553.41;5024731;28;19979;-51
2022/06/10 11:11:12;;;;;;;;;;;;;;;30.27;65.11;99553.31;5024178;28;19927;-50
2022/06/10 11:13:42;;;;;;;;;;;;;;;30.15;65.20;99552.75;5025484;28;19939;-50
2022/06/10 11:16:31;;;;;;;;;;;;;;;30.25;62.15;99560.63;5043243;28;19928;-53
2022/06/10 11:19:04;;;;;;;;;;;;;;;30.51;60.80;99555.22;5043982;28;19921;-52
2022/06/10 11:21:29;;;;;;;;;;;;;;;30.70;60.31;99549.59;5024106;28;19956;-52
2022/06/10 11:23:56;;;;;;;;;;;;;;;30.73;61.98;99559.06;5040262;28;20084;-51
2022/06/10 11:26:22;;;;;;;;;;;;;;;30.00;66.22;99552.56;5040619;28;19924;-50
2022/06/10 11:28:48;;;;;;;;;;;;;;;30.21;67.80;99552.94;5024853;28;19928;-51
2022/06/10 11:31:20;;;;;;;;;;;;;;;30.58;66.68;99550.88;5025684;28;19922;-50
2022/06/10 11:33:45;;;;;;;;;;;;;;;31.55;62.21;99554.53;5023639;28;20871;-53
2022/06/10 11:36:12;;;;;;;;;;;;;;;30.85;65.45;99553.25;5038392;28;20024;-52
2022/06/10 11:38:39;;;;;;;;;;;;;;;30.22;66.72;99551.13;5023902;28;19927;-49
2022/06/10 11:41:43;;;;;;;;;;;;;;;31.27;59.79;99551.41;5022775;28;19932;-54
2022/06/10 11:44:13;;;;;;;;;;;;;;;31.94;57.27;99548.38;4941981;28;19926;-54
2022/06/10 11:46:46;;;;;;;;;;;;;;;32.58;58.98;99539.41;4935192;28;19918;-54
2022/06/10 11:49:12;;;;;;;;;;;;;;;31.62;61.54;99538.69;4987055;28;20135;-53
2022/06/10 11:51:48;;;;;;;;;;;;;;;32.13;60.87;99535.66;5045742;28;19923;-53
2022/06/10 11:54:19;;;;;;;;;;;;;;;33.38;57.55;99540.69;5029544;28;19928;-50
2022/06/10 11:59:45;;;;;;;;;;;;;;;31.52;57.84;99533.59;5044545;28;19922;-52
2022/06/10 12:02:22;;;;;;;;;;;;;;;31.88;55.64;99530.41;5039950;28;19925;-53
2022/06/10 12:04:50;;;;;;;;;;;;;;;32.37;56.54;99524.84;5020895;28;19968;-54
2022/06/10 12:07:17;;;;;;;;;;;;;;;31.73;63.76;99524.19;5027065;28;20336;-52
2022/06/10 12:09:47;;;;;;;;;;;;;;;32.03;64.06;99526.06;5045243;28;20362;-51
2022/06/10 12:12:15;;;;;;;;;;;;;;;33.20;56.69;99512.50;5026628;28;19924;-49
2022/06/10 12:14:42;;;;;;;;;;;;;;;33.60;51.29;99514.94;5041974;28;19978;-53
2022/06/10 12:17:20;;;;;;;;;;;;;;;34.66;52.23;99508.09;5026978;28;19923;-54
2022/06/10 12:19:50;;;;;;;;;;;;;;;31.94;53.30;99516.41;5036631;28;19931;-54
2022/06/10 12:22:15;;;;;;;;;;;;;;;33.80;51.82;99507.16;5026296;28;19962;-50
2022/06/10 12:24:40;;;;;;;;;;;;;;;33.98;53.17;99498.75;5020891;28;20559;-50
2022/06/10 12:27:08;;;;;;;;;;;;;;;33.20;51.04;99501.00;5043182;28;19920;-51
2022/06/10 12:29:36;;;;;;;;;;;;;;;33.67;53.81;99502.50;5027128;28;19947;-54
2022/06/10 12:32:04;;;;;;;;;;;;;;;33.67;50.09;99497.16;5025609;28;20684;-52
2022/06/10 12:34:29;;;;;;;;;;;;;;;33.29;49.18;99498.06;5024388;28;19982;-52
2022/06/10 12:36:56;;;;;;;;;;;;;;;32.53;48.46;99493.78;5045112;28;20764;-54
2022/06/10 12:39:32;;;;;;;;;;;;;;;33.37;50.46;99496.31;5046610;28;19920;-52
2022/06/10 12:42:00;;;;;;;;;;;;;;;34.20;49.08;99496.97;5040819;28;19920;-52
2022/06/10 12:44:26;;;;;;;;;;;;;;;34.22;51.75;99501.09;5026014;28;20030;-54
2022/06/10 12:46:56;;;;;;;;;;;;;;;34.52;46.26;99493.75;5026661;28;20602;-52
2022/06/10 12:49:31;;;;;;;;;;;;;;;35.13;49.25;99489.75;5043988;28;19943;-52
2022/06/10 12:52:14;;;;;;;;;;;;;;;34.27;46.98;99489.84;5043969;28;19925;-52
2022/06/10 12:54:43;;;;;;;;;;;;;;;35.54;47.16;99494.31;5045812;28;19921;-53
2022/06/10 12:57:26;;;;;;;;;;;;;;;34.18;49.96;99499.00;5023904;28;20474;-53
2022/06/10 13:00:12;;;;;;;;;;;;;;;34.02;50.64;99494.69;5042738;28;19920;-54
2022/06/10 13:02:47;;;;;;;;;;;;;;;33.13;52.67;99495.56;5043939;28;19931;-52